sensor_id;sensor_type;location;lat;lon;timestamp;P1;durP1;ratioP1;P2;durP2;ratioP2
27758;SDS011;15148;48.972;12.794;2022-07-23T00:04:10;8.82;;;8.05;;
27758;SDS011;15148;48.972;12.794;2022-07-23T00:09:12;9.07;;;8.27;;
27758;SDS011;15148;48.972;12.794;2022-07-23T00:14:13;8.85;;;8.05;;
27758;SDS011;15148;48.972;12.794;2022-07-23T00:19:15;8.93;;;8.05;;
27758;SDS011;15148;48.972;12.794;2022-07-23T00:24:17;9.70;;;7.95;;
27758;SDS011;15148;48.972;12.794;2022-07-23T00:29:19;9.00;;;8.10;;
27758;SDS011;15148;48.972;12.794;2022-07-23T00:34:21;9.02;;;8.25;;
27758;SDS011;15148;48.972;12.794;2022-07-23T00:39:23;9.68;;;8.68;;
27758;SDS011;15148;48.972;12.794;2022-07-23T00:44:26;9.23;;;8.35;;
27758;SDS011;15148;48.972;12.794;2022-07-23T00:49:29;13.32;;;9.20;;
27758;SDS011;15148;48.972;12.794;2022-07-23T00:54:31;9.38;;;8.48;;
27758;SDS011;15148;48.972;12.794;2022-07-23T00:59:33;8.73;;;7.93;;
27758;SDS011;15148;48.972;12.794;2022-07-23T01:04:36;11.52;;;9.48;;
27758;SDS011;15148;48.972;12.794;2022-07-23T01:09:38;11.73;;;8.95;;
27758;SDS011;15148;48.972;12.794;2022-07-23T01:14:40;9.98;;;8.45;;
27758;SDS011;15148;48.972;12.794;2022-07-23T01:19:42;10.52;;;9.32;;
27758;SDS011;15148;48.972;12.794;2022-07-23T01:24:44;10.05;;;9.15;;
27758;SDS011;15148;48.972;12.794;2022-07-23T01:29:46;9.80;;;8.90;;
27758;SDS011;15148;48.972;12.794;2022-07-23T01:34:52;9.25;;;8.38;;
27758;SDS011;15148;48.972;12.794;2022-07-23T01:39:54;12.20;;;8.65;;
27758;SDS011;15148;48.972;12.794;2022-07-23T01:44:57;9.45;;;8.57;;
27758;SDS011;15148;48.972;12.794;2022-07-23T01:49:59;8.98;;;8.13;;
27758;SDS011;15148;48.972;12.794;2022-07-23T01:55:01;9.20;;;8.30;;
27758;SDS011;15148;48.972;12.794;2022-07-23T02:00:07;9.30;;;8.15;;
27758;SDS011;15148;48.972;12.794;2022-07-23T02:05:20;9.88;;;8.93;;
27758;SDS011;15148;48.972;12.794;2022-07-23T02:10:22;9.27;;;8.48;;
27758;SDS011;15148;48.972;12.794;2022-07-23T02:15:24;9.40;;;8.50;;
27758;SDS011;15148;48.972;12.794;2022-07-23T02:20:26;9.98;;;8.80;;
27758;SDS011;15148;48.972;12.794;2022-07-23T02:25:28;10.15;;;9.25;;
27758;SDS011;15148;48.972;12.794;2022-07-23T02:30:34;9.25;;;8.43;;
27758;SDS011;15148;48.972;12.794;2022-07-23T02:35:37;9.07;;;8.18;;
27758;SDS011;15148;48.972;12.794;2022-07-23T02:40:40;9.40;;;8.50;;
27758;SDS011;15148;48.972;12.794;2022-07-23T02:45:43;9.23;;;8.32;;
27758;SDS011;15148;48.972;12.794;2022-07-23T02:50:45;9.70;;;8.85;;
27758;SDS011;15148;48.972;12.794;2022-07-23T02:55:51;10.70;;;9.75;;
27758;SDS011;15148;48.972;12.794;2022-07-23T03:00:55;11.82;;;10.73;;
27758;SDS011;15148;48.972;12.794;2022-07-23T03:05:59;11.70;;;10.50;;
27758;SDS011;15148;48.972;12.794;2022-07-23T03:11:01;12.00;;;10.88;;
27758;SDS011;15148;48.972;12.794;2022-07-23T03:16:03;16.10;;;11.27;;
27758;SDS011;15148;48.972;12.794;2022-07-23T03:21:06;13.15;;;11.50;;
27758;SDS011;15148;48.972;12.794;2022-07-23T03:26:08;12.55;;;11.25;;
27758;SDS011;15148;48.972;12.794;2022-07-23T03:31:10;12.02;;;10.65;;
27758;SDS011;15148;48.972;12.794;2022-07-23T03:36:13;11.88;;;10.77;;
27758;SDS011;15148;48.972;12.794;2022-07-23T03:41:19;12.35;;;11.20;;
27758;SDS011;15148;48.972;12.794;2022-07-23T03:46:21;13.10;;;11.90;;
27758;SDS011;15148;48.972;12.794;2022-07-23T03:51:23;12.95;;;11.65;;
27758;SDS011;15148;48.972;12.794;2022-07-23T03:56:25;13.40;;;11.63;;
27758;SDS011;15148;48.972;12.794;2022-07-23T04:01:27;12.75;;;11.45;;
27758;SDS011;15148;48.972;12.794;2022-07-23T04:06:29;13.25;;;11.63;;
27758;SDS011;15148;48.972;12.794;2022-07-23T04:11:33;12.27;;;10.30;;
27758;SDS011;15148;48.972;12.794;2022-07-23T04:16:35;11.38;;;9.73;;
27758;SDS011;15148;48.972;12.794;2022-07-23T04:21:38;12.95;;;11.63;;
27758;SDS011;15148;48.972;12.794;2022-07-23T04:26:40;12.80;;;11.50;;
27758;SDS011;15148;48.972;12.794;2022-07-23T04:31:42;13.40;;;11.35;;
27758;SDS011;15148;48.972;12.794;2022-07-23T04:36:44;11.82;;;10.57;;
27758;SDS011;15148;48.972;12.794;2022-07-23T04:41:46;10.85;;;9.80;;
27758;SDS011;15148;48.972;12.794;2022-07-23T04:46:49;10.80;;;9.90;;
27758;SDS011;15148;48.972;12.794;2022-07-23T04:51:51;12.18;;;10.20;;
27758;SDS011;15148;48.972;12.794;2022-07-23T04:56:53;12.50;;;10.88;;
27758;SDS011;15148;48.972;12.794;2022-07-23T05:01:55;9.52;;;8.63;;
27758;SDS011;15148;48.972;12.794;2022-07-23T05:06:57;9.02;;;8.18;;
27758;SDS011;15148;48.972;12.794;2022-07-23T05:12:00;8.52;;;6.30;;
27758;SDS011;15148;48.972;12.794;2022-07-23T05:17:04;7.40;;;6.30;;
27758;SDS011;15148;48.972;12.794;2022-07-23T05:22:06;10.38;;;6.15;;
27758;SDS011;15148;48.972;12.794;2022-07-23T05:27:10;8.77;;;6.13;;
27758;SDS011;15148;48.972;12.794;2022-07-23T05:32:14;8.23;;;5.90;;
27758;SDS011;15148;48.972;12.794;2022-07-23T05:37:23;6.78;;;5.35;;
27758;SDS011;15148;48.972;12.794;2022-07-23T05:42:25;8.63;;;5.82;;
27758;SDS011;15148;48.972;12.794;2022-07-23T05:47:27;7.95;;;5.97;;
27758;SDS011;15148;48.972;12.794;2022-07-23T05:52:29;6.63;;;6.03;;
27758;SDS011;15148;48.972;12.794;2022-07-23T05:57:52;9.45;;;5.70;;
27758;SDS011;15148;48.972;12.794;2022-07-23T06:02:53;7.03;;;6.32;;
27758;SDS011;15148;48.972;12.794;2022-07-23T06:07:57;6.50;;;5.90;;
27758;SDS011;15148;48.972;12.794;2022-07-23T06:13:00;7.88;;;5.95;;
27758;SDS011;15148;48.972;12.794;2022-07-23T06:18:03;6.25;;;5.50;;
27758;SDS011;15148;48.972;12.794;2022-07-23T06:23:05;7.32;;;5.38;;
27758;SDS011;15148;48.972;12.794;2022-07-23T06:28:08;6.68;;;5.90;;
27758;SDS011;15148;48.972;12.794;2022-07-23T06:33:09;8.98;;;6.38;;
27758;SDS011;15148;48.972;12.794;2022-07-23T06:38:12;6.07;;;5.50;;
27758;SDS011;15148;48.972;12.794;2022-07-23T06:43:15;7.38;;;5.95;;
27758;SDS011;15148;48.972;12.794;2022-07-23T06:48:19;7.05;;;6.00;;
27758;SDS011;15148;48.972;12.794;2022-07-23T06:53:21;9.13;;;7.45;;
27758;SDS011;15148;48.972;12.794;2022-07-23T06:58:23;8.73;;;7.28;;
27758;SDS011;15148;48.972;12.794;2022-07-23T07:03:24;11.27;;;8.52;;
27758;SDS011;15148;48.972;12.794;2022-07-23T07:08:26;9.80;;;8.05;;
27758;SDS011;15148;48.972;12.794;2022-07-23T07:13:28;10.52;;;8.02;;
27758;SDS011;15148;48.972;12.794;2022-07-23T07:18:30;7.10;;;6.38;;
27758;SDS011;15148;48.972;12.794;2022-07-23T07:23:32;7.10;;;6.45;;
27758;SDS011;15148;48.972;12.794;2022-07-23T07:28:34;7.13;;;6.53;;
27758;SDS011;15148;48.972;12.794;2022-07-23T07:33:36;7.57;;;6.20;;
27758;SDS011;15148;48.972;12.794;2022-07-23T07:38:38;6.95;;;6.25;;
27758;SDS011;15148;48.972;12.794;2022-07-23T07:43:40;7.18;;;6.30;;
27758;SDS011;15148;48.972;12.794;2022-07-23T07:48:41;6.13;;;5.53;;
27758;SDS011;15148;48.972;12.794;2022-07-23T07:53:43;6.78;;;5.90;;
27758;SDS011;15148;48.972;12.794;2022-07-23T07:58:46;6.57;;;5.97;;
27758;SDS011;15148;48.972;12.794;2022-07-23T08:03:48;6.50;;;5.90;;
27758;SDS011;15148;48.972;12.794;2022-07-23T08:08:51;6.80;;;6.10;;
27758;SDS011;15148;48.972;12.794;2022-07-23T08:13:52;7.05;;;6.35;;
27758;SDS011;15148;48.972;12.794;2022-07-23T08:18:54;6.57;;;5.95;;
27758;SDS011;15148;48.972;12.794;2022-07-23T08:23:56;6.82;;;6.13;;
27758;SDS011;15148;48.972;12.794;2022-07-23T08:28:59;6.60;;;5.68;;
27758;SDS011;15148;48.972;12.794;2022-07-23T08:34:01;6.20;;;5.60;;
27758;SDS011;15148;48.972;12.794;2022-07-23T08:39:04;7.80;;;5.70;;
27758;SDS011;15148;48.972;12.794;2022-07-23T08:44:07;6.03;;;5.53;;
27758;SDS011;15148;48.972;12.794;2022-07-23T08:49:10;6.28;;;5.68;;
27758;SDS011;15148;48.972;12.794;2022-07-23T08:54:12;5.65;;;5.03;;
27758;SDS011;15148;48.972;12.794;2022-07-23T08:59:14;5.70;;;5.20;;
27758;SDS011;15148;48.972;12.794;2022-07-23T09:04:16;5.45;;;4.95;;
27758;SDS011;15148;48.972;12.794;2022-07-23T09:09:18;5.00;;;4.60;;
27758;SDS011;15148;48.972;12.794;2022-07-23T09:14:35;6.28;;;4.38;;
27758;SDS011;15148;48.972;12.794;2022-07-23T09:19:42;5.78;;;5.18;;
27758;SDS011;15148;48.972;12.794;2022-07-23T09:25:05;5.03;;;4.53;;
27758;SDS011;15148;48.972;12.794;2022-07-23T09:30:12;5.03;;;4.60;;
27758;SDS011;15148;48.972;12.794;2022-07-23T09:35:14;5.45;;;4.95;;
27758;SDS011;15148;48.972;12.794;2022-07-23T09:40:16;5.15;;;4.55;;
27758;SDS011;15148;48.972;12.794;2022-07-23T09:45:19;6.28;;;4.50;;
27758;SDS011;15148;48.972;12.794;2022-07-23T09:50:20;4.85;;;4.45;;
27758;SDS011;15148;48.972;12.794;2022-07-23T09:55:31;4.97;;;4.53;;
27758;SDS011;15148;48.972;12.794;2022-07-23T10:00:38;5.10;;;4.60;;
27758;SDS011;15148;48.972;12.794;2022-07-23T10:05:41;5.05;;;4.63;;
27758;SDS011;15148;48.972;12.794;2022-07-23T10:11:13;5.28;;;4.88;;
27758;SDS011;15148;48.972;12.794;2022-07-23T10:16:29;5.13;;;4.63;;
27758;SDS011;15148;48.972;12.794;2022-07-23T10:21:42;5.40;;;4.90;;
27758;SDS011;15148;48.972;12.794;2022-07-23T10:26:52;5.25;;;4.75;;
27758;SDS011;15148;48.972;12.794;2022-07-23T10:37:28;6.47;;;5.45;;
27758;SDS011;15148;48.972;12.794;2022-07-23T10:42:38;6.53;;;5.93;;
27758;SDS011;15148;48.972;12.794;2022-07-23T10:47:40;7.07;;;6.35;;
27758;SDS011;15148;48.972;12.794;2022-07-23T10:58:10;6.68;;;6.07;;
27758;SDS011;15148;48.972;12.794;2022-07-23T11:03:29;6.35;;;5.75;;
27758;SDS011;15148;48.972;12.794;2022-07-23T11:08:40;7.15;;;6.45;;
27758;SDS011;15148;48.972;12.794;2022-07-23T11:13:46;6.65;;;6.05;;
27758;SDS011;15148;48.972;12.794;2022-07-23T11:29:33;6.88;;;6.28;;
27758;SDS011;15148;48.972;12.794;2022-07-23T11:34:30;7.05;;;6.45;;
27758;SDS011;15148;48.972;12.794;2022-07-23T11:39:44;7.00;;;6.40;;
27758;SDS011;15148;48.972;12.794;2022-07-23T11:44:48;7.43;;;6.15;;
27758;SDS011;15148;48.972;12.794;2022-07-23T11:49:55;6.75;;;6.05;;
27758;SDS011;15148;48.972;12.794;2022-07-23T11:55:03;6.70;;;6.10;;
27758;SDS011;15148;48.972;12.794;2022-07-23T12:00:08;6.32;;;5.70;;
27758;SDS011;15148;48.972;12.794;2022-07-23T12:05:13;7.18;;;6.18;;
27758;SDS011;15148;48.972;12.794;2022-07-23T12:10:23;6.80;;;5.80;;
27758;SDS011;15148;48.972;12.794;2022-07-23T12:20:44;6.22;;;5.55;;
27758;SDS011;15148;48.972;12.794;2022-07-23T12:25:51;6.53;;;5.35;;
27758;SDS011;15148;48.972;12.794;2022-07-23T12:30:54;5.82;;;5.32;;
27758;SDS011;15148;48.972;12.794;2022-07-23T12:35:58;6.13;;;5.60;;
27758;SDS011;15148;48.972;12.794;2022-07-23T12:46:15;5.32;;;4.82;;
27758;SDS011;15148;48.972;12.794;2022-07-23T12:51:23;7.53;;;5.43;;
27758;SDS011;15148;48.972;12.794;2022-07-23T12:56:31;5.73;;;5.23;;
27758;SDS011;15148;48.972;12.794;2022-07-23T13:01:36;5.78;;;5.10;;
27758;SDS011;15148;48.972;12.794;2022-07-23T13:06:42;5.75;;;5.32;;
27758;SDS011;15148;48.972;12.794;2022-07-23T13:11:48;9.10;;;7.18;;
27758;SDS011;15148;48.972;12.794;2022-07-23T13:16:51;7.60;;;6.90;;
27758;SDS011;15148;48.972;12.794;2022-07-23T13:21:54;9.57;;;8.48;;
27758;SDS011;15148;48.972;12.794;2022-07-23T13:26:56;9.18;;;8.13;;
27758;SDS011;15148;48.972;12.794;2022-07-23T13:31:59;7.95;;;7.28;;
27758;SDS011;15148;48.972;12.794;2022-07-23T13:37:01;9.57;;;8.00;;
27758;SDS011;15148;48.972;12.794;2022-07-23T13:42:03;8.70;;;7.80;;
27758;SDS011;15148;48.972;12.794;2022-07-23T13:47:07;7.97;;;7.28;;
27758;SDS011;15148;48.972;12.794;2022-07-23T13:52:09;8.73;;;7.50;;
27758;SDS011;15148;48.972;12.794;2022-07-23T13:57:11;8.52;;;7.75;;
27758;SDS011;15148;48.972;12.794;2022-07-23T14:02:15;7.93;;;7.20;;
27758;SDS011;15148;48.972;12.794;2022-07-23T14:07:39;7.85;;;7.10;;
27758;SDS011;15148;48.972;12.794;2022-07-23T14:12:41;6.93;;;6.32;;
27758;SDS011;15148;48.972;12.794;2022-07-23T14:17:43;7.03;;;6.43;;
27758;SDS011;15148;48.972;12.794;2022-07-23T14:22:47;7.70;;;6.88;;
27758;SDS011;15148;48.972;12.794;2022-07-23T14:27:50;7.40;;;6.78;;
27758;SDS011;15148;48.972;12.794;2022-07-23T14:32:52;6.95;;;6.35;;
27758;SDS011;15148;48.972;12.794;2022-07-23T14:37:54;6.22;;;5.68;;
27758;SDS011;15148;48.972;12.794;2022-07-23T14:42:58;7.15;;;6.55;;
27758;SDS011;15148;48.972;12.794;2022-07-23T14:48:00;7.20;;;6.60;;
27758;SDS011;15148;48.972;12.794;2022-07-23T14:53:03;7.15;;;6.57;;
27758;SDS011;15148;48.972;12.794;2022-07-23T14:58:05;7.05;;;6.45;;
27758;SDS011;15148;48.972;12.794;2022-07-23T15:03:08;6.30;;;5.70;;
27758;SDS011;15148;48.972;12.794;2022-07-23T15:08:10;8.45;;;6.60;;
27758;SDS011;15148;48.972;12.794;2022-07-23T15:13:12;6.95;;;6.35;;
27758;SDS011;15148;48.972;12.794;2022-07-23T15:19:03;7.47;;;6.68;;
27758;SDS011;15148;48.972;12.794;2022-07-23T15:24:55;8.23;;;7.47;;
27758;SDS011;15148;48.972;12.794;2022-07-23T15:30:46;7.00;;;6.40;;
27758;SDS011;15148;48.972;12.794;2022-07-23T15:36:37;7.03;;;6.40;;
27758;SDS011;15148;48.972;12.794;2022-07-23T15:42:28;7.32;;;6.60;;
27758;SDS011;15148;48.972;12.794;2022-07-23T15:48:19;9.13;;;7.05;;
27758;SDS011;15148;48.972;12.794;2022-07-23T15:54:10;8.43;;;7.70;;
27758;SDS011;15148;48.972;12.794;2022-07-23T16:00:01;7.93;;;7.13;;
27758;SDS011;15148;48.972;12.794;2022-07-23T16:05:53;7.22;;;6.63;;
27758;SDS011;15148;48.972;12.794;2022-07-23T16:11:44;8.07;;;7.28;;
27758;SDS011;15148;48.972;12.794;2022-07-23T16:17:35;8.93;;;8.10;;
27758;SDS011;15148;48.972;12.794;2022-07-23T16:23:26;8.05;;;7.35;;
27758;SDS011;15148;48.972;12.794;2022-07-23T16:29:17;7.63;;;6.82;;
27758;SDS011;15148;48.972;12.794;2022-07-23T16:34:20;7.07;;;6.38;;
27758;SDS011;15148;48.972;12.794;2022-07-23T16:39:22;7.07;;;6.47;;
27758;SDS011;15148;48.972;12.794;2022-07-23T16:44:24;7.28;;;6.57;;
27758;SDS011;15148;48.972;12.794;2022-07-23T16:49:27;6.95;;;6.25;;
27758;SDS011;15148;48.972;12.794;2022-07-23T16:54:28;6.57;;;6.07;;
27758;SDS011;15148;48.972;12.794;2022-07-23T16:59:31;6.38;;;5.88;;
27758;SDS011;15148;48.972;12.794;2022-07-23T17:04:33;8.35;;;7.22;;
27758;SDS011;15148;48.972;12.794;2022-07-23T17:09:35;8.43;;;7.63;;
27758;SDS011;15148;48.972;12.794;2022-07-23T17:14:37;8.32;;;7.53;;
27758;SDS011;15148;48.972;12.794;2022-07-23T17:19:39;8.10;;;7.40;;
27758;SDS011;15148;48.972;12.794;2022-07-23T17:24:41;9.02;;;8.13;;
27758;SDS011;15148;48.972;12.794;2022-07-23T17:29:45;8.43;;;7.70;;
27758;SDS011;15148;48.972;12.794;2022-07-23T17:34:47;8.60;;;7.75;;
27758;SDS011;15148;48.972;12.794;2022-07-23T17:39:49;9.20;;;7.40;;
27758;SDS011;15148;48.972;12.794;2022-07-23T17:44:52;7.75;;;7.05;;
27758;SDS011;15148;48.972;12.794;2022-07-23T17:49:55;8.02;;;7.43;;
27758;SDS011;15148;48.972;12.794;2022-07-23T17:54:57;8.65;;;7.80;;
27758;SDS011;15148;48.972;12.794;2022-07-23T17:59:59;12.43;;;10.15;;
27758;SDS011;15148;48.972;12.794;2022-07-23T18:05:06;9.97;;;7.90;;
27758;SDS011;15148;48.972;12.794;2022-07-23T18:10:09;8.18;;;7.38;;
27758;SDS011;15148;48.972;12.794;2022-07-23T18:15:11;9.55;;;8.35;;
27758;SDS011;15148;48.972;12.794;2022-07-23T18:20:13;9.43;;;8.52;;
27758;SDS011;15148;48.972;12.794;2022-07-23T18:25:15;9.38;;;8.45;;
27758;SDS011;15148;48.972;12.794;2022-07-23T18:30:17;8.70;;;7.90;;
27758;SDS011;15148;48.972;12.794;2022-07-23T18:35:19;9.02;;;7.75;;
27758;SDS011;15148;48.972;12.794;2022-07-23T18:40:23;9.50;;;8.60;;
27758;SDS011;15148;48.972;12.794;2022-07-23T18:45:25;9.90;;;9.00;;
27758;SDS011;15148;48.972;12.794;2022-07-23T18:50:27;9.13;;;8.23;;
27758;SDS011;15148;48.972;12.794;2022-07-23T18:55:36;9.05;;;8.25;;
27758;SDS011;15148;48.972;12.794;2022-07-23T19:00:41;9.55;;;8.65;;
27758;SDS011;15148;48.972;12.794;2022-07-23T19:05:43;9.48;;;8.50;;
27758;SDS011;15148;48.972;12.794;2022-07-23T19:10:45;9.88;;;8.98;;
27758;SDS011;15148;48.972;12.794;2022-07-23T19:15:47;9.18;;;8.27;;
27758;SDS011;15148;48.972;12.794;2022-07-23T19:20:49;9.98;;;9.07;;
27758;SDS011;15148;48.972;12.794;2022-07-23T19:25:51;13.98;;;9.27;;
27758;SDS011;15148;48.972;12.794;2022-07-23T19:30:52;10.43;;;9.00;;
27758;SDS011;15148;48.972;12.794;2022-07-23T19:35:55;12.00;;;9.25;;
27758;SDS011;15148;48.972;12.794;2022-07-23T19:40:57;10.02;;;9.02;;
27758;SDS011;15148;48.972;12.794;2022-07-23T19:45:59;9.60;;;8.70;;
27758;SDS011;15148;48.972;12.794;2022-07-23T19:51:01;9.75;;;8.75;;
27758;SDS011;15148;48.972;12.794;2022-07-23T19:56:03;9.57;;;8.68;;
27758;SDS011;15148;48.972;12.794;2022-07-23T20:01:06;9.32;;;8.52;;
27758;SDS011;15148;48.972;12.794;2022-07-23T20:06:08;16.88;;;13.30;;
27758;SDS011;15148;48.972;12.794;2022-07-23T20:11:10;10.18;;;9.27;;
27758;SDS011;15148;48.972;12.794;2022-07-23T20:16:13;14.88;;;13.38;;
27758;SDS011;15148;48.972;12.794;2022-07-23T20:21:15;12.95;;;11.65;;
27758;SDS011;15148;48.972;12.794;2022-07-23T20:26:17;9.75;;;8.63;;
27758;SDS011;15148;48.972;12.794;2022-07-23T20:31:19;10.20;;;9.20;;
27758;SDS011;15148;48.972;12.794;2022-07-23T20:36:22;10.77;;;8.25;;
27758;SDS011;15148;48.972;12.794;2022-07-23T20:41:24;9.57;;;8.68;;
27758;SDS011;15148;48.972;12.794;2022-07-23T20:46:26;9.18;;;8.32;;
27758;SDS011;15148;48.972;12.794;2022-07-23T20:51:28;11.60;;;8.93;;
27758;SDS011;15148;48.972;12.794;2022-07-23T20:56:30;12.48;;;10.35;;
27758;SDS011;15148;48.972;12.794;2022-07-23T21:01:33;11.00;;;9.07;;
27758;SDS011;15148;48.972;12.794;2022-07-23T21:06:50;9.65;;;8.77;;
27758;SDS011;15148;48.972;12.794;2022-07-23T21:11:52;9.80;;;8.90;;
27758;SDS011;15148;48.972;12.794;2022-07-23T21:16:55;10.93;;;9.07;;
27758;SDS011;15148;48.972;12.794;2022-07-23T21:21:57;10.45;;;9.38;;
27758;SDS011;15148;48.972;12.794;2022-07-23T21:26:59;9.38;;;8.57;;
27758;SDS011;15148;48.972;12.794;2022-07-23T21:32:04;9.63;;;8.73;;
27758;SDS011;15148;48.972;12.794;2022-07-23T21:37:06;9.88;;;8.88;;
27758;SDS011;15148;48.972;12.794;2022-07-23T21:42:08;9.68;;;8.77;;
27758;SDS011;15148;48.972;12.794;2022-07-23T21:47:10;10.07;;;9.18;;
27758;SDS011;15148;48.972;12.794;2022-07-23T21:52:11;10.43;;;9.43;;
27758;SDS011;15148;48.972;12.794;2022-07-23T21:57:13;10.93;;;8.88;;
27758;SDS011;15148;48.972;12.794;2022-07-23T22:02:16;10.15;;;9.18;;
27758;SDS011;15148;48.972;12.794;2022-07-23T22:07:18;9.23;;;8.43;;
27758;SDS011;15148;48.972;12.794;2022-07-23T22:12:20;11.35;;;8.90;;
27758;SDS011;15148;48.972;12.794;2022-07-23T22:17:22;10.20;;;9.20;;
27758;SDS011;15148;48.972;12.794;2022-07-23T22:22:24;9.25;;;8.45;;
27758;SDS011;15148;48.972;12.794;2022-07-23T22:27:27;10.18;;;9.27;;
27758;SDS011;15148;48.972;12.794;2022-07-23T22:32:28;11.05;;;9.88;;
27758;SDS011;15148;48.972;12.794;2022-07-23T22:37:30;10.55;;;9.65;;
27758;SDS011;15148;48.972;12.794;2022-07-23T22:42:32;10.50;;;9.50;;
27758;SDS011;15148;48.972;12.794;2022-07-23T22:47:34;10.38;;;9.48;;
27758;SDS011;15148;48.972;12.794;2022-07-23T22:52:36;10.00;;;8.98;;
27758;SDS011;15148;48.972;12.794;2022-07-23T22:57:38;9.90;;;8.95;;
27758;SDS011;15148;48.972;12.794;2022-07-23T23:02:40;11.02;;;8.95;;
27758;SDS011;15148;48.972;12.794;2022-07-23T23:07:44;11.10;;;10.00;;
27758;SDS011;15148;48.972;12.794;2022-07-23T23:12:45;10.55;;;9.55;;
27758;SDS011;15148;48.972;12.794;2022-07-23T23:17:47;11.63;;;10.50;;
27758;SDS011;15148;48.972;12.794;2022-07-23T23:22:49;11.57;;;10.38;;
27758;SDS011;15148;48.972;12.794;2022-07-23T23:27:51;11.43;;;10.43;;
27758;SDS011;15148;48.972;12.794;2022-07-23T23:32:53;10.85;;;9.85;;
27758;SDS011;15148;48.972;12.794;2022-07-23T23:37:55;10.98;;;9.98;;
27758;SDS011;15148;48.972;12.794;2022-07-23T23:42:57;11.07;;;10.00;;
27758;SDS011;15148;48.972;12.794;2022-07-23T23:47:59;11.90;;;10.70;;
27758;SDS011;15148;48.972;12.794;2022-07-23T23:53:00;12.77;;;9.80;;
27758;SDS011;15148;48.972;12.794;2022-07-23T23:58:04;11.45;;;10.40;;
